KSLE/SLE METAR and TAF weather

Enter ICAO airport designator
Station Type Date Time Source
KSLE METAR 2019/06/27 09:56 UTC NOAA

KSLE 270956Z AUTO 16005KT 10SM FEW050 BKN080 11/09 A2999 RMK AO2 RAE03 SLP157 P0000 T01110094


Station Type Date Time Source
KSLE Decoded METAR 2019/06/27 09:56 UTC NOAA

SALEM MCNARY FIELD, OR, United States (KSLE) 44-54N 123-00W 59M
Jun 27, 2019 - 05:56 AM EDT / 2019.06.27 0956 UTC
Wind: from the SSE (160 degrees) at 6 MPH (5 KT):0
Visibility: 10 mile(s):0
Sky conditions: mostly cloudy
Precipitation last hour: A trace
Temperature: 52.0 F (11.1 C)
Dew Point: 48.9 F (9.4 C)
Relative Humidity: 89%
Pressure (altimeter): 29.99 in. Hg (1015 hPa)
ob: KSLE 270956Z AUTO 16005KT 10SM FEW050 BKN080 11/09 A2999 RMK AO2 RAE03 SLP157 P0000 T01110094
cycle: 10

Station Type Date Time Source
KSLE TAF 2019/06/27 06:22 UTC NOAA

TAF KSLE 270520Z 2706/2806 22003KT P6SM OVC060
FM271800 21008G16KT P6SM -SHRA BKN050 OVC090
FM280300 22004KT P6SM VCSH OVC050

Example: see airport list